Time;durP1;ratioP1;P1;durP2;ratioP2;P2;SDS_P1;SDS_P2;PMS_P1;PMS_P2;Temp;Humidity;BMP_temperature;BMP_pressure;BME280_temperature;BME280_humidity;BME280_pressure;Samples;Min_cycle;Max_cycle;Signal;HPM_P1;HPM_P2
2022/06/04 00:02:06;;;;;;;10.30;2.80;;;14.50;99.90;;;;;;5003966;28;20030;-54
2022/06/04 00:04:32;;;;;;;15.70;3.30;;;14.50;99.90;;;;;;5009088;28;20088;-54
2022/06/04 00:06:58;;;;;;;9.35;3.17;;;14.50;99.90;;;;;;5010897;28;20113;-52
2022/06/04 00:09:25;;;;;;;19.48;3.13;;;14.50;99.90;;;;;;5009778;28;21731;-55
2022/06/04 00:17:21;;;;;;;7.38;2.42;;;14.40;99.90;;;;;;5010334;28;20080;-55
2022/06/04 00:19:47;;;;;;;11.27;3.35;;;14.40;99.90;;;;;;5005970;28;20038;-55
2022/06/04 00:22:14;;;;;;;13.55;3.97;;;14.40;99.90;;;;;;5005714;28;20024;-55
2022/06/04 00:24:42;;;;;;;15.40;3.83;;;14.30;99.90;;;;;;5006739;28;20030;-55
2022/06/04 00:27:14;;;;;;;13.80;2.90;;;14.40;99.90;;;;;;5009421;28;20022;-55
2022/06/04 00:29:40;;;;;;;17.25;3.60;;;14.40;99.90;;;;;;5007813;28;20038;-55
2022/06/04 00:32:06;;;;;;;21.63;5.45;;;14.40;99.90;;;;;;5010370;28;20057;-54
2022/06/04 00:34:32;;;;;;;18.50;4.70;;;14.40;99.90;;;;;;5003599;28;20029;-54
2022/06/04 00:36:59;;;;;;;10.00;3.22;;;14.40;99.90;;;;;;5010354;28;20029;-54
2022/06/04 00:39:25;;;;;;;12.73;3.13;;;14.40;99.90;;;;;;5007494;28;20393;-56
2022/06/04 00:41:59;;;;;;;16.67;4.30;;;14.40;99.90;;;;;;5002439;28;20026;-55
2022/06/04 00:44:31;;;;;;;21.13;4.30;;;14.40;99.90;;;;;;5006817;28;20030;-56
2022/06/04 00:47:20;;;;;;;16.70;3.58;;;14.40;99.90;;;;;;5009886;28;20089;-55
2022/06/04 00:49:45;;;;;;;14.57;2.53;;;14.40;99.90;;;;;;5000095;28;20034;-56
2022/06/04 00:52:14;;;;;;;13.73;3.60;;;14.40;99.90;;;;;;5009726;28;20382;-57
2022/06/04 00:54:43;;;;;;;18.17;3.30;;;14.40;99.90;;;;;;5005103;28;20034;-56
2022/06/04 00:57:34;;;;;;;18.42;3.47;;;14.50;99.90;;;;;;5000158;28;20116;-54
2022/06/04 01:00:28;;;;;;;13.95;2.88;;;14.50;99.90;;;;;;5008363;28;20037;-55
2022/06/04 01:02:57;;;;;;;13.15;3.65;;;14.50;99.90;;;;;;5004240;28;20064;-54
2022/06/04 01:05:43;;;;;;;17.17;4.32;;;14.50;99.90;;;;;;5010807;28;20026;-54
2022/06/04 01:08:24;;;;;;;16.52;3.88;;;14.50;99.90;;;;;;5001906;28;20053;-55
2022/06/04 01:11:25;;;;;;;20.15;3.00;;;14.50;99.90;;;;;;5004958;28;20022;-56
2022/06/04 01:14:20;;;;;;;9.05;3.03;;;14.40;99.90;;;;;;5000812;28;20463;-55
2022/06/04 01:16:55;;;;;;;13.48;3.10;;;14.50;99.90;;;;;;5000944;28;20448;-54
2022/06/04 01:19:36;;;;;;;17.02;3.58;;;14.40;99.90;;;;;;4999740;28;20434;-54
2022/06/04 01:22:20;;;;;;;14.60;2.80;;;14.50;99.90;;;;;;5008925;28;20084;-53
2022/06/04 01:25:10;;;;;;;16.02;4.28;;;14.50;99.90;;;;;;5002274;28;20115;-56
2022/06/04 01:28:00;;;;;;;13.95;3.25;;;14.50;99.90;;;;;;5005612;28;20022;-56
2022/06/04 01:30:36;;;;;;;10.40;3.05;;;14.40;99.90;;;;;;5003721;28;20042;-56
2022/06/04 01:33:13;;;;;;;16.67;3.30;;;14.50;99.90;;;;;;5007293;28;20406;-54
2022/06/04 01:36:01;;;;;;;20.23;4.38;;;14.40;99.90;;;;;;5008498;28;20521;-56
2022/06/04 01:38:34;;;;;;;15.65;4.03;;;14.50;99.90;;;;;;5007386;28;20030;-55
2022/06/04 01:41:07;;;;;;;13.68;3.28;;;14.50;99.90;;;;;;5008541;28;20022;-55
2022/06/04 01:43:48;;;;;;;10.63;3.05;;;14.50;99.90;;;;;;5007591;28;20501;-55
2022/06/04 01:46:19;;;;;;;20.13;4.47;;;14.60;99.90;;;;;;4995180;28;20386;-56
2022/06/04 01:48:48;;;;;;;10.75;3.88;;;14.60;99.90;;;;;;5005702;28;20459;-56
2022/06/04 01:51:20;;;;;;;14.13;3.35;;;14.60;99.90;;;;;;5007785;28;20021;-56
2022/06/04 01:53:49;;;;;;;19.00;3.10;;;14.50;99.90;;;;;;5008237;28;20541;-56
2022/06/04 01:56:27;;;;;;;20.42;3.97;;;14.50;99.90;;;;;;5008463;28;20053;-57
2022/06/04 01:59:02;;;;;;;13.10;3.38;;;14.50;99.90;;;;;;4999777;28;20033;-55
2022/06/04 02:01:32;;;;;;;17.40;3.40;;;14.50;99.90;;;;;;5004006;28;20064;-56
2022/06/04 02:04:00;;;;;;;20.95;3.42;;;14.50;99.90;;;;;;5003582;28;20069;-54
2022/06/04 02:06:32;;;;;;;13.40;4.07;;;14.50;99.90;;;;;;5007913;28;20060;-56
2022/06/04 02:09:07;;;;;;;17.65;3.20;;;14.50;99.90;;;;;;5009270;28;20040;-55
2022/06/04 02:11:34;;;;;;;10.23;3.05;;;14.50;99.90;;;;;;5005038;28;20038;-55
2022/06/04 02:14:05;;;;;;;16.00;3.25;;;14.50;99.90;;;;;;5004869;28;20081;-56
2022/06/04 02:16:56;;;;;;;13.27;2.92;;;14.50;99.90;;;;;;5007026;28;20026;-55
2022/06/04 02:19:22;;;;;;;16.05;3.20;;;14.50;99.90;;;;;;5005690;28;20052;-57
2022/06/04 02:21:48;;;;;;;11.50;3.22;;;14.50;99.90;;;;;;5001439;28;20034;-55
2022/06/04 02:24:14;;;;;;;10.52;3.17;;;14.50;99.90;;;;;;5009496;28;20022;-55
2022/06/04 02:26:44;;;;;;;14.60;2.90;;;14.60;99.90;;;;;;5007492;28;20045;-56
2022/06/04 02:29:10;;;;;;;15.55;2.95;;;14.50;99.90;;;;;;5009203;28;20042;-56
2022/06/04 02:32:03;;;;;;;14.80;2.78;;;14.50;99.90;;;;;;5004575;28;20054;-56
2022/06/04 02:34:39;;;;;;;18.33;3.20;;;14.50;99.90;;;;;;5006945;28;20398;-56
2022/06/04 02:37:26;;;;;;;11.15;3.10;;;14.50;99.90;;;;;;5008633;28;20033;-56
2022/06/04 02:40:12;;;;;;;10.63;3.50;;;14.60;99.90;;;;;;5009101;28;20041;-55
2022/06/04 02:42:41;;;;;;;10.80;2.92;;;14.60;99.90;;;;;;5005162;28;20069;-54
2022/06/04 02:45:16;;;;;;;13.20;3.78;;;14.60;99.90;;;;;;5008657;28;20045;-54
2022/06/04 02:48:05;;;;;;;18.52;2.85;;;14.50;99.90;;;;;;5003643;28;20164;-54
2022/06/04 02:50:51;;;;;;;9.85;2.40;;;14.50;99.90;;;;;;5007290;28;20041;-54
2022/06/04 02:53:18;;;;;;;22.50;4.00;;;14.50;99.90;;;;;;5004398;28;20025;-55
2022/06/04 02:56:06;;;;;;;17.30;3.20;;;14.50;99.90;;;;;;5007137;28;20118;-55
2022/06/04 02:58:34;;;;;;;10.52;3.45;;;14.50;99.90;;;;;;4997372;28;20030;-55
2022/06/04 03:01:03;;;;;;;13.02;2.97;;;14.50;99.90;;;;;;5007399;28;20034;-53
2022/06/04 03:03:29;;;;;;;11.93;3.33;;;14.50;99.90;;;;;;5007247;28;20026;-54
2022/06/04 03:05:57;;;;;;;13.18;2.67;;;14.50;99.90;;;;;;5012118;28;20022;-54
2022/06/04 03:08:26;;;;;;;15.43;3.20;;;14.50;99.90;;;;;;5012686;28;20466;-54
2022/06/04 03:10:51;;;;;;;7.82;2.67;;;14.50;99.90;;;;;;5009345;28;20029;-55
2022/06/04 03:13:17;;;;;;;19.98;4.03;;;14.50;99.90;;;;;;5011670;28;20026;-55
2022/06/04 03:15:43;;;;;;;11.13;3.33;;;14.50;99.90;;;;;;5010825;28;20117;-53
2022/06/04 03:18:09;;;;;;;11.80;3.45;;;14.40;99.90;;;;;;5012471;28;20116;-55
2022/06/04 03:20:35;;;;;;;12.80;3.25;;;14.40;99.90;;;;;;5009392;28;20076;-54
2022/06/04 03:23:01;;;;;;;12.43;2.90;;;14.40;99.90;;;;;;5012193;28;20026;-53
2022/06/04 03:25:28;;;;;;;14.10;3.60;;;14.40;99.90;;;;;;5011121;28;20539;-54
2022/06/04 03:27:54;;;;;;;9.48;3.60;;;14.40;99.90;;;;;;5004030;28;20104;-54
2022/06/04 03:30:19;;;;;;;11.80;3.72;;;14.50;99.90;;;;;;5008138;28;20168;-52
2022/06/04 03:32:45;;;;;;;12.75;3.13;;;14.50;99.90;;;;;;5011391;28;20057;-55
2022/06/04 03:35:13;;;;;;;16.83;3.95;;;14.50;99.90;;;;;;5012247;28;20037;-56
2022/06/04 03:37:39;;;;;;;12.05;2.80;;;14.40;99.90;;;;;;5009902;28;20058;-56
2022/06/04 03:40:06;;;;;;;13.73;4.20;;;14.40;99.90;;;;;;5012283;28;20112;-55
2022/06/04 03:42:32;;;;;;;13.57;4.20;;;14.40;99.90;;;;;;5006231;28;20469;-56
2022/06/04 03:44:57;;;;;;;10.82;3.70;;;14.40;99.90;;;;;;5010712;28;20101;-55
2022/06/04 03:47:25;;;;;;;14.13;4.90;;;14.30;99.90;;;;;;5011757;28;20548;-55
2022/06/04 03:49:51;;;;;;;13.70;4.28;;;14.30;99.90;;;;;;5010093;28;20136;-55
2022/06/04 03:52:17;;;;;;;14.75;3.80;;;14.30;99.90;;;;;;5010938;28;20434;-54
2022/06/04 03:54:55;;;;;;;15.63;5.22;;;14.20;99.90;;;;;;5010025;28;20466;-56
2022/06/04 03:57:39;;;;;;;17.15;4.28;;;14.20;99.90;;;;;;5011237;28;20026;-55
2022/06/04 04:00:12;;;;;;;9.05;3.45;;;14.20;99.90;;;;;;5004473;28;20030;-55
2022/06/04 04:02:40;;;;;;;11.07;3.65;;;14.10;99.90;;;;;;5007838;28;20148;-54
2022/06/04 04:05:07;;;;;;;11.10;3.30;;;14.10;99.90;;;;;;5011683;28;20517;-55
2022/06/04 04:07:33;;;;;;;11.65;3.83;;;14.10;99.90;;;;;;5009845;28;20033;-55
2022/06/04 04:09:59;;;;;;;14.93;5.15;;;14.10;99.90;;;;;;5010310;28;20040;-53
2022/06/04 04:12:25;;;;;;;10.30;4.30;;;14.20;99.90;;;;;;5011377;28;20392;-54
2022/06/04 04:14:51;;;;;;;11.90;3.65;;;14.10;99.90;;;;;;5009551;28;20586;-55
2022/06/04 04:17:16;;;;;;;16.13;3.90;;;14.20;99.90;;;;;;5010431;28;20022;-55
2022/06/04 04:19:42;;;;;;;10.88;4.78;;;14.10;99.90;;;;;;5008967;28;20041;-56
2022/06/04 04:22:08;;;;;;;12.88;3.75;;;14.00;99.90;;;;;;5010195;28;20417;-55
2022/06/04 04:24:33;;;;;;;16.70;5.40;;;14.00;99.90;;;;;;5009469;28;20036;-55
2022/06/04 04:26:59;;;;;;;14.55;4.18;;;14.10;99.90;;;;;;5010487;28;20028;-55
2022/06/04 04:29:25;;;;;;;16.65;3.80;;;14.10;99.90;;;;;;5011099;28;20069;-55
2022/06/04 04:31:51;;;;;;;12.63;3.75;;;14.10;99.90;;;;;;5002160;28;20048;-55
2022/06/04 04:34:16;;;;;;;18.00;4.50;;;14.10;99.90;;;;;;5010402;28;20029;-55
2022/06/04 04:36:45;;;;;;;11.35;3.55;;;14.10;99.90;;;;;;5009151;28;20026;-55
2022/06/04 04:39:11;;;;;;;17.63;4.82;;;14.10;99.90;;;;;;5010616;28;20038;-56
2022/06/04 04:41:36;;;;;;;14.75;4.43;;;14.10;99.90;;;;;;5008689;28;20034;-56
2022/06/04 04:44:03;;;;;;;17.15;4.30;;;14.00;99.90;;;;;;5010613;28;20029;-55
2022/06/04 04:46:28;;;;;;;13.98;4.43;;;14.00;99.90;;;;;;5007439;28;20387;-54
2022/06/04 04:48:54;;;;;;;17.38;4.50;;;14.10;99.90;;;;;;5010807;28;20160;-55
2022/06/04 04:51:25;;;;;;;8.43;4.10;;;14.10;99.90;;;;;;5010674;28;20401;-53
2022/06/04 04:53:53;;;;;;;14.77;5.57;;;14.10;99.90;;;;;;5008472;28;20030;-50
2022/06/04 04:56:21;;;;;;;12.57;3.67;;;14.10;99.90;;;;;;5010169;28;20164;-56
2022/06/04 04:58:47;;;;;;;12.43;4.10;;;14.20;99.90;;;;;;5009212;28;20095;-55
2022/06/04 05:01:20;;;;;;;17.98;5.18;;;14.20;99.90;;;;;;5005158;28;20022;-55
2022/06/04 05:03:46;;;;;;;13.75;4.13;;;14.20;99.90;;;;;;5008652;28;20030;-55
2022/06/04 05:06:14;;;;;;;12.77;4.32;;;14.20;99.90;;;;;;5002852;28;20429;-55
2022/06/04 05:08:39;;;;;;;16.25;4.68;;;14.20;99.90;;;;;;5008260;28;20041;-51
2022/06/04 05:11:10;;;;;;;15.23;4.25;;;14.20;99.90;;;;;;5008815;28;20121;-56
2022/06/04 05:13:37;;;;;;;20.75;5.20;;;14.10;99.90;;;;;;5008742;28;20100;-57
2022/06/04 05:16:09;;;;;;;18.48;6.07;;;14.10;99.90;;;;;;5009835;28;20506;-59
2022/06/04 05:19:01;;;;;;;;;;;14.00;99.90;;;;;;5008802;28;20053;-58
2022/06/04 05:21:50;;;;;;;17.13;5.30;;;14.00;99.90;;;;;;5004564;28;19917;-59
2022/06/04 05:24:18;;;;;;;16.67;6.07;;;13.90;99.90;;;;;;5009732;28;20502;-58
2022/06/04 05:26:44;;;;;;;11.80;4.82;;;13.80;99.90;;;;;;5001412;28;20501;-58
2022/06/04 05:29:11;;;;;;;17.05;5.28;;;13.70;99.90;;;;;;5009991;28;20041;-57
2022/06/04 05:31:37;;;;;;;17.85;5.47;;;13.70;99.90;;;;;;5006605;28;20042;-58
2022/06/04 05:34:03;;;;;;;12.98;6.13;;;13.60;99.90;;;;;;5009413;28;20482;-61
2022/06/04 05:36:29;;;;;;;13.80;5.57;;;13.50;99.90;;;;;;5007994;28;20510;-59
2022/06/04 05:38:55;;;;;;;14.85;5.68;;;13.50;99.90;;;;;;5010063;28;20126;-59
2022/06/04 05:41:21;;;;;;;18.13;6.05;;;13.50;99.90;;;;;;5009369;28;20465;-59
2022/06/04 05:43:47;;;;;;;22.63;5.63;;;13.50;99.90;;;;;;5007717;28;20037;-59
2022/06/04 05:46:15;;;;;;;13.15;5.45;;;13.50;99.90;;;;;;5008585;28;20029;-59
2022/06/04 05:48:44;;;;;;;15.65;7.13;;;13.40;99.90;;;;;;5007839;28;20037;-59
2022/06/04 05:51:12;;;;;;;15.57;6.80;;;13.40;99.90;;;;;;5009428;28;20084;-59
2022/06/04 05:53:38;;;;;;;21.95;6.28;;;13.40;99.90;;;;;;5008169;28;20056;-58
2022/06/04 05:56:11;;;;;;;19.15;6.88;;;13.40;99.90;;;;;;5009265;28;20080;-58
2022/06/04 05:58:37;;;;;;;21.17;6.40;;;13.40;99.90;;;;;;5008006;28;20033;-58
2022/06/04 06:01:03;;;;;;;13.82;5.03;;;13.50;99.90;;;;;;5008436;28;20022;-58
2022/06/04 06:03:29;;;;;;;22.60;6.63;;;13.50;99.90;;;;;;5007564;28;20390;-59
2022/06/04 06:05:54;;;;;;;17.27;6.07;;;13.50;99.90;;;;;;5009829;28;20026;-59
2022/06/04 06:08:20;;;;;;;17.92;6.43;;;13.50;99.90;;;;;;5008323;28;20092;-58
2022/06/04 06:10:46;;;;;;;21.98;6.72;;;13.60;99.90;;;;;;5007789;28;20042;-57
2022/06/04 06:13:12;;;;;;;21.50;7.25;;;13.60;99.90;;;;;;5009345;28;20022;-57
2022/06/04 06:15:38;;;;;;;18.38;7.07;;;13.60;99.90;;;;;;5007166;28;20073;-57
2022/06/04 06:18:06;;;;;;;15.98;5.85;;;13.50;99.90;;;;;;5008695;28;20173;-57
2022/06/04 06:20:33;;;;;;;20.73;5.75;;;13.50;99.90;;;;;;5007730;28;20030;-58
2022/06/04 06:22:59;;;;;;;19.08;6.15;;;13.50;99.90;;;;;;5009894;28;20101;-57
2022/06/04 06:25:26;;;;;;;14.27;5.22;;;13.50;99.90;;;;;;5008042;28;20034;-57
2022/06/04 06:27:52;;;;;;;15.95;6.00;;;13.50;99.90;;;;;;5005944;28;20023;-57
2022/06/04 06:30:18;;;;;;;20.15;6.93;;;13.60;99.90;;;;;;5009609;28;20034;-57
2022/06/04 06:32:44;;;;;;;15.07;6.13;;;13.60;99.90;;;;;;5007774;28;20406;-57
2022/06/04 06:35:10;;;;;;;20.63;6.20;;;13.70;99.90;;;;;;5008157;28;20040;-57
2022/06/04 06:37:36;;;;;;;18.38;6.78;;;13.70;99.90;;;;;;5006372;28;20474;-57
2022/06/04 06:40:04;;;;;;;22.67;6.95;;;13.70;99.90;;;;;;5009944;28;20018;-56
2022/06/04 06:42:29;;;;;;;22.50;7.10;;;13.70;99.90;;;;;;5010803;28;20030;-56
2022/06/04 06:44:55;;;;;;;14.38;5.38;;;13.80;99.90;;;;;;5013171;28;20029;-57
2022/06/04 06:47:21;;;;;;;16.95;5.95;;;13.80;99.90;;;;;;5011487;28;20034;-57
2022/06/04 06:49:47;;;;;;;22.70;6.28;;;13.80;99.90;;;;;;5011521;28;20041;-57
2022/06/04 06:52:15;;;;;;;16.77;6.25;;;13.80;99.90;;;;;;5010876;28;20030;-57
2022/06/04 06:54:41;;;;;;;16.85;5.55;;;13.80;99.90;;;;;;5011412;28;20034;-57
2022/06/04 06:57:09;;;;;;;15.55;6.07;;;13.80;99.90;;;;;;5012434;28;20091;-57
2022/06/04 06:59:36;;;;;;;14.70;5.28;;;13.80;99.90;;;;;;5010883;28;20042;-57
2022/06/04 07:02:02;;;;;;;14.50;5.20;;;13.90;99.90;;;;;;5012915;28;20022;-55
2022/06/04 07:04:28;;;;;;;13.63;6.45;;;13.80;99.90;;;;;;5012943;28;20076;-56
2022/06/04 07:06:57;;;;;;;15.60;6.20;;;13.90;99.90;;;;;;5011143;28;20113;-54
2022/06/04 07:09:28;;;;;;;13.45;5.55;;;13.80;99.90;;;;;;5012540;28;20525;-56
2022/06/04 07:11:55;;;;;;;22.40;5.50;;;13.80;99.90;;;;;;5012150;28;20021;-56
2022/06/04 07:14:23;;;;;;;18.20;5.97;;;13.90;99.90;;;;;;5005705;28;20104;-53
2022/06/04 07:16:49;;;;;;;18.98;5.22;;;14.00;99.90;;;;;;4998449;28;20334;-56
2022/06/04 07:19:16;;;;;;;11.90;5.38;;;14.00;99.90;;;;;;5012018;28;20025;-56
2022/06/04 07:21:42;;;;;;;18.95;5.55;;;14.10;99.90;;;;;;5007752;28;20108;-55
2022/06/04 07:24:09;;;;;;;16.23;5.88;;;14.30;99.90;;;;;;5012436;28;20034;-56
2022/06/04 07:26:35;;;;;;;17.63;5.50;;;14.40;99.90;;;;;;5009834;28;20029;-57
2022/06/04 07:29:02;;;;;;;24.08;7.78;;;14.60;99.90;;;;;;5011402;28;20077;-55
2022/06/04 07:31:29;;;;;;;16.58;4.72;;;14.80;99.90;;;;;;5010420;28;20465;-57
2022/06/04 07:33:56;;;;;;;13.98;4.90;;;14.90;99.90;;;;;;5006601;28;20037;-55
2022/06/04 07:36:34;;;;;;;15.88;5.80;;;15.10;99.90;;;;;;5009055;28;20029;-56
2022/06/04 07:39:02;;;;;;;11.50;4.40;;;15.30;99.90;;;;;;5012152;28;20025;-56
2022/06/04 07:41:33;;;;;;;24.05;5.15;;;15.40;99.90;;;;;;5005022;28;20084;-55
2022/06/04 07:43:59;;;;;;;24.30;5.00;;;15.30;99.90;;;;;;5011039;28;20061;-55
2022/06/04 07:46:27;;;;;;;14.43;4.60;;;15.40;99.90;;;;;;5012041;28;20504;-56
2022/06/04 07:49:00;;;;;;;12.90;4.32;;;15.20;99.90;;;;;;5011772;28;20074;-55
2022/06/04 07:51:27;;;;;;;17.90;4.20;;;15.40;99.90;;;;;;5011817;28;20037;-56
2022/06/04 07:53:52;;;;;;;14.93;4.82;;;15.60;99.90;;;;;;5010000;28;20022;-56
2022/06/04 07:56:19;;;;;;;15.48;4.05;;;15.80;99.90;;;;;;5005165;28;20026;-56
2022/06/04 07:58:46;;;;;;;15.55;4.32;;;16.20;99.90;;;;;;5009977;28;20113;-56
2022/06/04 08:01:14;;;;;;;12.60;5.22;;;16.60;99.90;;;;;;5011503;28;20436;-56
2022/06/04 08:03:42;;;;;;;12.43;3.70;;;16.80;99.90;;;;;;5009823;28;20122;-55
2022/06/04 08:06:10;;;;;;;7.15;3.80;;;17.00;99.90;;;;;;5011826;28;20156;-56
2022/06/04 08:08:37;;;;;;;15.32;3.90;;;17.10;99.90;;;;;;5009510;28;20136;-57
2022/06/04 08:11:30;;;;;;;17.48;4.75;;;17.10;99.90;;;;;;5011297;28;20026;-56
2022/06/04 08:13:49;;;;;;;14.30;4.10;;;17.20;99.90;;;;;;5009072;28;20069;-56
2022/06/04 08:16:16;;;;;;;21.58;4.50;;;16.90;99.90;;;;;;5011031;28;20508;-55
2022/06/04 08:18:41;;;;;;;8.07;3.63;;;16.80;99.90;;;;;;5009170;28;20111;-56
2022/06/04 08:21:07;;;;;;;11.25;4.13;;;16.80;99.90;;;;;;5014978;28;20085;-57
2022/06/04 08:23:33;;;;;;;13.60;4.13;;;16.80;99.90;;;;;;5009042;28;20041;-55
2022/06/04 08:25:59;;;;;;;11.65;3.65;;;16.70;99.90;;;;;;5012253;28;20026;-55
2022/06/04 08:28:26;;;;;;;8.27;3.20;;;17.00;99.90;;;;;;5011232;28;20371;-57
2022/06/04 08:31:05;;;;;;;12.27;3.33;;;17.20;99.90;;;;;;5005041;28;20401;-56
2022/06/04 08:33:31;;;;;;;11.88;3.55;;;17.30;99.90;;;;;;5008398;28;20050;-58
2022/06/04 08:35:56;;;;;;;10.82;3.53;;;17.50;99.90;;;;;;5011246;28;20029;-55
2022/06/04 08:38:23;;;;;;;13.75;5.15;;;17.50;99.90;;;;;;5010278;28;20474;-57
2022/06/04 08:40:58;;;;;;;12.90;3.63;;;17.70;99.90;;;;;;5006908;28;20022;-57
2022/06/04 08:43:49;;;;;;;12.65;3.75;;;17.80;99.90;;;;;;5005990;28;20545;-57
2022/06/04 08:46:56;;;;;;;13.63;3.25;;;17.90;99.90;;;;;;5005623;28;20021;-57
2022/06/04 08:49:29;;;;;;;15.10;4.22;;;18.10;99.90;;;;;;4990517;28;20038;-57
2022/06/04 08:51:57;;;;;;;15.27;4.78;;;18.20;99.90;;;;;;4981836;28;20062;-55
2022/06/04 09:00:07;;;;;;;15.18;3.58;;;18.70;99.90;;;;;;4983691;28;20077;-55
2022/06/04 09:02:51;;;;;;;12.60;3.20;;;18.80;99.90;;;;;;4992131;28;20113;-57
2022/06/04 09:05:25;;;;;;;12.45;3.47;;;18.90;99.90;;;;;;4988971;28;20033;-57
2022/06/04 09:07:59;;;;;;;10.23;3.00;;;18.90;99.90;;;;;;4988404;28;20137;-56
2022/06/04 09:10:34;;;;;;;10.38;4.43;;;19.10;99.90;;;;;;4986961;28;20092;-57
2022/06/04 09:13:05;;;;;;;19.80;3.95;;;19.10;99.90;;;;;;4987568;28;20129;-56
2022/06/04 09:15:42;;;;;;;17.33;4.37;;;19.30;99.90;;;;;;4995461;28;20038;-56
2022/06/04 09:18:32;;;;;;;15.70;3.45;;;19.20;99.90;;;;;;4988301;28;20081;-56
2022/06/04 09:21:01;;;;;;;12.35;3.80;;;19.10;99.90;;;;;;4999730;28;20038;-57
2022/06/04 09:23:36;;;;;;;12.63;3.67;;;18.90;99.90;;;;;;5008650;28;20036;-57
2022/06/04 09:26:24;;;;;;;15.15;3.88;;;18.80;99.90;;;;;;5004972;28;20040;-57
2022/06/04 09:29:08;;;;;;;15.13;3.72;;;18.80;99.90;;;;;;5007895;28;20038;-56
2022/06/04 09:32:12;;;;;;;13.10;3.65;;;18.80;99.90;;;;;;5006891;28;20497;-56
2022/06/04 09:34:42;;;;;;;13.10;3.67;;;19.00;99.90;;;;;;5004354;28;20026;-55
2022/06/04 09:37:10;;;;;;;15.25;3.80;;;19.70;99.90;;;;;;5009301;28;20029;-55
2022/06/04 09:39:40;;;;;;;15.63;4.10;;;19.80;99.90;;;;;;5008100;28;20033;-55
2022/06/04 09:42:19;;;;;;;14.45;3.97;;;19.80;99.90;;;;;;5006231;28;20033;-57
2022/06/04 09:44:56;;;;;;;12.70;4.70;;;19.50;99.90;;;;;;5008233;28;20079;-55
2022/06/04 09:47:29;;;;;;;13.15;3.47;;;19.20;99.90;;;;;;5009673;28;20511;-56
2022/06/04 09:50:17;;;;;;;19.75;4.40;;;19.30;99.90;;;;;;5006093;28;20076;-57
2022/06/04 09:52:55;;;;;;;16.02;4.53;;;19.30;99.90;;;;;;5006215;28;20026;-57
2022/06/04 09:55:24;;;;;;;14.73;4.05;;;19.30;99.90;;;;;;5009725;28;20087;-57
2022/06/04 09:58:29;;;;;;;11.05;4.53;;;19.40;99.90;;;;;;5005865;28;20033;-56
2022/06/04 10:01:02;;;;;;;11.43;3.28;;;19.50;99.90;;;;;;4987680;28;20165;-56
2022/06/04 10:03:31;;;;;;;7.85;3.08;;;19.40;99.90;;;;;;4987493;28;20061;-57
2022/06/04 10:06:24;;;;;;;11.35;4.10;;;19.10;99.90;;;;;;4982056;28;20526;-56
2022/06/04 10:11:49;;;;;;;12.57;3.78;;;18.90;99.90;;;;;;4985109;28;20077;-56
2022/06/04 10:14:15;;;;;;;16.00;3.97;;;18.90;99.90;;;;;;4977453;28;20502;-57
2022/06/04 10:16:44;;;;;;;11.35;4.05;;;18.90;99.90;;;;;;4990282;28;20074;-56
2022/06/04 10:19:17;;;;;;;12.77;3.45;;;19.10;99.90;;;;;;4991132;28;20027;-54
2022/06/04 10:21:46;;;;;;;13.25;3.50;;;19.50;99.90;;;;;;4985052;28;20486;-56
2022/06/04 10:24:24;;;;;;;16.00;4.38;;;20.00;99.70;;;;;;4991581;28;20359;-55
2022/06/04 10:26:57;;;;;;;11.02;3.30;;;20.30;98.80;;;;;;4988346;28;20030;-54
2022/06/04 10:29:35;;;;;;;9.80;3.42;;;20.50;98.20;;;;;;4991109;28;20145;-55
2022/06/04 10:32:23;;;;;;;10.60;3.70;;;20.70;97.60;;;;;;4990424;28;20046;-56
2022/06/04 10:34:48;;;;;;;12.50;4.00;;;20.70;96.50;;;;;;5000348;28;20697;-57
2022/06/04 10:37:37;;;;;;;13.35;3.40;;;20.80;97.20;;;;;;5012921;28;20069;-56
2022/06/04 10:40:33;;;;;;;12.82;3.28;;;21.10;96.40;;;;;;5011244;28;20029;-57
2022/06/04 10:43:01;;;;;;;10.45;3.35;;;21.20;96.20;;;;;;5004546;28;20096;-55
2022/06/04 10:45:34;;;;;;;14.07;3.90;;;21.30;95.50;;;;;;5011145;28;20108;-57
2022/06/04 10:48:36;;;;;;;16.52;3.90;;;21.20;95.40;;;;;;5000331;28;20094;-56
2022/06/04 10:51:41;;;;;;;9.13;3.47;;;20.80;96.50;;;;;;5013066;28;20080;-57
2022/06/04 10:54:19;;;;;;;13.45;3.70;;;20.70;96.60;;;;;;5005311;28;20065;-56
2022/06/04 10:57:05;;;;;;;15.70;3.90;;;20.60;97.40;;;;;;5010879;28;20034;-57
2022/06/04 10:59:39;;;;;;;10.85;3.28;;;20.80;97.20;;;;;;5011089;28;20038;-57
2022/06/04 11:02:43;;;;;;;10.70;4.50;;;20.40;96.50;;;;;;5012883;28;20092;-55
2022/06/04 11:05:34;;;;;;;16.65;3.80;;;20.10;97.40;;;;;;5023024;28;20033;-55
2022/06/04 11:08:21;;;;;;;13.55;3.53;;;20.50;97.20;;;;;;5004996;28;20036;-57
2022/06/04 11:11:05;;;;;;;13.23;3.60;;;21.20;95.50;;;;;;5006554;28;20654;-55
2022/06/04 11:13:43;;;;;;;15.63;3.50;;;21.20;95.00;;;;;;5010882;28;20108;-57
2022/06/04 11:16:13;;;;;;;13.48;3.08;;;21.60;94.40;;;;;;5012511;28;20117;-56
2022/06/04 11:18:45;;;;;;;11.63;3.40;;;21.90;93.60;;;;;;5010520;28;20394;-57
2022/06/04 11:21:23;;;;;;;9.57;3.35;;;22.00;93.20;;;;;;5011353;28;20498;-55
2022/06/04 11:24:02;;;;;;;19.10;3.10;;;21.80;93.20;;;;;;5008261;28;20089;-55
2022/06/04 11:26:51;;;;;;;9.38;3.20;;;22.20;93.10;;;;;;5012686;28;20485;-59
2022/06/04 11:29:17;;;;;;;12.65;3.45;;;22.40;92.30;;;;;;5000758;28;20406;-55
2022/06/04 11:31:55;;;;;;;9.40;3.25;;;22.40;92.20;;;;;;5007929;28;20144;-55
2022/06/04 11:34:20;;;;;;;12.32;3.22;;;22.70;92.10;;;;;;5007265;28;20090;-55
2022/06/04 11:37:02;;;;;;;8.50;2.72;;;22.80;90.90;;;;;;5010132;28;20490;-56
2022/06/04 11:39:55;;;;;;;13.50;3.53;;;22.50;91.50;;;;;;5005542;28;20033;-57
2022/06/04 11:42:23;;;;;;;10.75;3.10;;;22.10;92.00;;;;;;5002954;28;20061;-57
2022/06/04 11:45:18;;;;;;;8.70;3.70;;;21.70;92.40;;;;;;5008034;28;20038;-56
2022/06/04 11:48:22;;;;;;;10.88;3.78;;;22.00;92.80;;;;;;5009751;28;20018;-55
2022/06/04 11:51:07;;;;;;;11.52;3.50;;;22.10;91.80;;;;;;5009987;28;20441;-54
2022/06/04 11:53:59;;;;;;;11.07;3.08;;;22.20;91.40;;;;;;5009206;28;20128;-56
2022/06/04 11:56:27;;;;;;;;;;;22.40;91.10;;;;;;5006249;28;20026;-56
2022/06/04 11:59:17;;;;;;;11.75;3.08;;;22.50;90.50;;;;;;5008026;28;19916;-55
2022/06/04 12:01:51;;;;;;;13.18;3.70;;;22.80;90.50;;;;;;5001314;28;20446;-55
2022/06/04 12:04:26;;;;;;;9.65;3.05;;;22.80;90.30;;;;;;5011573;28;20060;-55
2022/06/04 12:07:05;;;;;;;11.80;2.80;;;22.60;91.00;;;;;;5008811;28;20022;-54
2022/06/04 12:09:41;;;;;;;10.57;3.22;;;22.90;90.30;;;;;;5002611;28;20042;-55
2022/06/04 12:12:13;;;;;;;12.85;3.03;;;23.00;89.50;;;;;;5007923;28;20168;-52
2022/06/04 12:14:59;;;;;;;10.13;2.88;;;23.50;87.20;;;;;;5007080;28;20041;-55
2022/06/04 12:17:43;;;;;;;12.55;3.83;;;23.40;86.50;;;;;;5006827;28;20068;-55
2022/06/04 12:26:36;;;;;;;;;;;23.90;84.00;;;;;;5000903;28;20413;-58
2022/06/04 12:29:23;;;;;;;12.35;3.15;;;24.10;83.60;;;;;;5013208;28;19913;-57
2022/06/04 12:31:55;;;;;;;8.07;2.60;;;25.10;80.70;;;;;;5011541;28;20636;-54
2022/06/04 12:34:35;;;;;;;14.65;3.00;;;25.10;79.10;;;;;;5009710;28;20393;-56
2022/06/04 12:37:02;;;;;;;10.98;3.35;;;24.80;78.70;;;;;;5009258;28;20033;-56
2022/06/04 12:39:34;;;;;;;9.13;3.15;;;24.30;81.30;;;;;;5012086;28;20030;-55
2022/06/04 12:42:10;;;;;;;12.13;2.90;;;24.70;80.90;;;;;;5007797;28;20164;-56
2022/06/04 12:44:36;;;;;;;11.85;3.35;;;25.20;78.00;;;;;;5018107;28;20362;-56
2022/06/04 12:47:19;;;;;;;9.30;2.85;;;25.90;74.70;;;;;;5008828;28;20328;-56
2022/06/04 12:49:55;;;;;;;11.68;3.47;;;26.10;72.70;;;;;;5007025;28;20045;-57
2022/06/04 12:52:42;;;;;;;11.65;2.83;;;26.40;70.40;;;;;;5012831;28;20081;-55
2022/06/04 12:55:23;;;;;;;13.88;4.18;;;26.40;71.00;;;;;;5020254;28;20056;-54
2022/06/04 12:57:58;;;;;;;8.25;2.97;;;25.90;70.80;;;;;;5002447;28;20121;-57
2022/06/04 13:00:32;;;;;;;10.40;2.78;;;25.20;72.50;;;;;;5013580;28;20044;-55
2022/06/04 13:02:58;;;;;;;7.55;3.10;;;23.80;76.50;;;;;;5009576;28;20545;-56
2022/06/04 13:05:26;;;;;;;10.15;3.15;;;22.90;82.40;;;;;;5016622;28;20113;-56
2022/06/04 13:08:17;;;;;;;9.18;2.67;;;22.30;86.60;;;;;;5011140;28;20389;-56
2022/06/04 13:10:52;;;;;;;8.30;2.85;;;22.90;85.00;;;;;;4996168;28;20045;-56
2022/06/04 13:13:29;;;;;;;9.55;3.03;;;24.20;79.20;;;;;;5003982;28;20542;-55
2022/06/04 13:16:01;;;;;;;6.00;2.63;;;25.10;75.10;;;;;;5009380;28;20064;-55
2022/06/04 13:18:33;;;;;;;11.93;3.20;;;25.90;71.40;;;;;;5016046;28;20033;-56
2022/06/04 13:21:04;;;;;;;11.43;3.20;;;25.80;70.70;;;;;;5017362;28;20137;-56
2022/06/04 13:23:41;;;;;;;7.93;3.00;;;25.30;70.50;;;;;;5017672;28;20021;-57
2022/06/04 13:26:21;;;;;;;13.52;3.22;;;24.70;72.50;;;;;;5012107;28;20049;-57
2022/06/04 13:28:49;;;;;;;9.27;3.25;;;24.10;77.00;;;;;;5005053;28;20037;-56